Time;durP1;ratioP1;P1;durP2;ratioP2;P2;SDS_P1;SDS_P2;PMS_P1;PMS_P2;Temp;Humidity;BMP_temperature;BMP_pressure;BME280_temperature;BME280_humidity;BME280_pressure;Samples;Min_cycle;Max_cycle;Signal;HPM_P1;HPM_P2
2022/11/21 00:01:19;;;;;;;7.63;6.05;;;;;;;9.80;100.00;91846.16;5069120;28;20570;-72
2022/11/21 00:03:48;;;;;;;7.93;5.70;;;;;;;9.84;100.00;91847.25;5069507;28;20089;-72
2022/11/21 00:06:15;;;;;;;7.03;5.32;;;;;;;9.60;100.00;91814.94;5068971;28;20584;-72
2022/11/21 00:08:41;;;;;;;8.45;4.40;;;;;;;9.82;100.00;91837.22;5079537;28;20043;-72
2022/11/21 00:11:08;;;;;;;7.50;4.88;;;;;;;9.89;100.00;91845.53;5110214;28;20050;-72
2022/11/21 00:13:35;;;;;;;6.55;4.82;;;;;;;9.91;100.00;91847.09;5109729;28;20047;-72
2022/11/21 00:16:06;;;;;;;7.47;5.25;;;;;;;9.95;100.00;91841.22;5109995;28;20073;-72
2022/11/21 00:18:34;;;;;;;8.35;5.93;;;;;;;9.96;100.00;91840.22;5109960;28;20533;-72
2022/11/21 00:21:06;;;;;;;10.13;6.03;;;;;;;9.98;100.00;91838.19;5109722;28;20572;-72
2022/11/21 00:23:33;;;;;;;5.15;3.67;;;;;;;9.92;100.00;91826.31;5109678;28;20478;-72
2022/11/21 00:26:04;;;;;;;5.45;3.70;;;;;;;9.93;100.00;91815.06;5110188;28;20047;-72
2022/11/21 00:28:30;;;;;;;6.82;3.58;;;;;;;9.96;100.00;91799.16;5109988;28;20093;-73
2022/11/21 00:30:57;;;;;;;7.28;3.25;;;;;;;9.97;100.00;91797.38;5109424;28;20043;-73
2022/11/21 00:33:24;;;;;;;6.03;3.60;;;;;;;9.89;100.00;91786.53;5109815;28;20386;-73
2022/11/21 00:35:50;;;;;;;7.35;3.50;;;;;;;9.82;100.00;91780.81;5109963;28;20088;-73
2022/11/21 00:38:18;;;;;;;4.28;2.70;;;;;;;9.79;100.00;91790.78;5109602;28;20107;-73
2022/11/21 00:40:45;;;;;;;4.38;1.90;;;;;;;9.74;100.00;91776.13;5106694;28;20048;-72
2022/11/21 00:43:12;;;;;;;4.00;1.80;;;;;;;9.75;100.00;91775.09;5099753;28;20096;-72
2022/11/21 00:45:39;;;;;;;2.22;1.60;;;;;;;9.75;100.00;91773.31;5113751;28;20056;-72
2022/11/21 00:48:07;;;;;;;3.65;1.50;;;;;;;9.73;100.00;91762.50;5106331;28;20501;-72
2022/11/21 00:50:33;;;;;;;2.80;1.38;;;;;;;9.71;100.00;91769.69;5107254;28;20063;-72
2022/11/21 00:53:00;;;;;;;2.78;1.40;;;;;;;9.57;100.00;91740.28;5113526;28;20052;-72
2022/11/21 00:55:28;;;;;;;4.28;1.30;;;;;;;9.73;100.00;91774.56;5085310;28;20047;-72
2022/11/21 00:57:55;;;;;;;3.28;1.52;;;;;;;9.72;100.00;91778.16;5113430;28;20081;-73
2022/11/21 01:00:21;;;;;;;5.85;1.50;;;;;;;9.74;100.00;91769.22;5113995;28;20051;-72
2022/11/21 01:02:48;;;;;;;4.05;1.70;;;;;;;9.74;100.00;91756.38;5113856;28;20048;-72
2022/11/21 01:05:15;;;;;;;4.55;1.58;;;;;;;9.78;100.00;91773.84;5113546;28;20051;-72
2022/11/21 01:07:41;;;;;;;4.70;2.17;;;;;;;9.79;100.00;91770.25;5097199;27;20536;-72
2022/11/21 01:10:08;;;;;;;4.85;1.77;;;;;;;9.79;100.00;91776.16;5091529;28;20141;-72
2022/11/21 01:12:36;;;;;;;3.28;1.75;;;;;;;9.77;100.00;91762.81;5084446;28;20149;-72
2022/11/21 01:15:03;;;;;;;6.30;1.38;;;;;;;9.85;100.00;91764.16;5072284;28;20493;-72
2022/11/21 01:17:32;;;;;;;5.95;1.40;;;;;;;9.77;100.00;91752.56;5072575;28;20056;-72
2022/11/21 01:19:59;;;;;;;3.80;1.00;;;;;;;9.83;100.00;91749.03;5072463;28;20049;-72
2022/11/21 01:22:26;;;;;;;3.38;1.60;;;;;;;9.86;100.00;91748.53;5072166;28;20044;-72
2022/11/21 01:24:53;;;;;;;2.65;1.25;;;;;;;9.83;100.00;91748.25;5071951;28;20074;-73
2022/11/21 01:27:19;;;;;;;4.32;1.60;;;;;;;9.91;100.00;91757.31;5072231;28;20130;-73
2022/11/21 01:29:47;;;;;;;4.65;1.55;;;;;;;9.88;100.00;91756.00;5072351;28;20048;-73
2022/11/21 01:32:14;;;;;;;3.67;1.17;;;;;;;9.90;100.00;91741.13;5071811;28;20109;-72
2022/11/21 01:34:41;;;;;;;5.22;1.40;;;;;;;9.90;100.00;91746.25;5072182;28;20048;-72
2022/11/21 01:37:07;;;;;;;4.85;1.30;;;;;;;9.95;100.00;91746.31;5071829;28;20052;-72
2022/11/21 01:39:34;;;;;;;4.70;1.23;;;;;;;9.96;100.00;91742.72;5071623;28;20052;-72
2022/11/21 01:42:01;;;;;;;4.57;1.30;;;;;;;9.93;100.00;91735.53;5071713;28;20522;-72
2022/11/21 01:44:48;;;;;;;4.28;1.10;;;;;;;10.03;100.00;91745.13;5072088;28;20044;-72
2022/11/21 01:47:14;;;;;;;2.78;0.93;;;;;;;10.06;100.00;91749.00;5071959;28;20102;-72
2022/11/21 01:49:43;;;;;;;4.10;1.13;;;;;;;10.09;100.00;91751.06;5071957;28;20048;-72
2022/11/21 01:52:13;;;;;;;2.85;1.00;;;;;;;10.11;100.00;91751.59;5071415;28;20044;-72
2022/11/21 01:54:43;;;;;;;8.77;1.33;;;;;;;10.13;100.00;91757.25;5082438;28;20036;-73
2022/11/21 01:57:14;;;;;;;2.85;1.08;;;;;;;10.15;100.00;91757.81;5092117;28;20569;-72
2022/11/21 01:59:47;;;;;;;6.55;1.63;;;;;;;10.22;100.00;91760.94;5092091;28;20097;-72
2022/11/21 02:02:20;;;;;;;4.50;1.00;;;;;;;10.25;100.00;91754.56;5092059;28;20101;-72
2022/11/21 02:04:48;;;;;;;3.33;1.10;;;;;;;10.28;100.00;91757.41;5092077;28;20146;-72
2022/11/21 02:07:18;;;;;;;2.95;0.98;;;;;;;10.35;100.00;91756.41;5091582;28;20087;-72
2022/11/21 02:09:48;;;;;;;2.67;1.00;;;;;;;10.37;100.00;91765.44;5091995;28;20040;-72
2022/11/21 02:12:22;;;;;;;3.58;1.33;;;;;;;10.39;100.00;91758.28;5091409;28;20121;-72
2022/11/21 02:14:49;;;;;;;7.32;1.70;;;;;;;10.43;100.00;91753.44;5091796;28;20040;-72
2022/11/21 02:17:19;;;;;;;2.90;1.08;;;;;;;10.46;100.00;91749.63;5091613;28;20146;-72
2022/11/21 02:19:52;;;;;;;3.15;1.10;;;;;;;10.42;100.00;91739.81;5091703;28;20036;-72
2022/11/21 02:22:27;;;;;;;2.67;0.95;;;;;;;10.44;100.00;91737.03;5091728;28;20446;-73
2022/11/21 02:25:05;;;;;;;5.85;1.63;;;;;;;10.43;100.00;91733.69;5091526;28;20044;-73
2022/11/21 02:27:32;;;;;;;4.63;1.35;;;;;;;10.45;100.00;91738.56;5091565;28;20460;-72
2022/11/21 02:29:59;;;;;;;4.70;2.08;;;;;;;10.43;100.00;91738.06;5091502;28;20109;-73
2022/11/21 02:32:33;;;;;;;3.90;1.67;;;;;;;10.43;100.00;91740.63;5091507;28;20032;-73
2022/11/21 02:35:00;;;;;;;5.80;1.85;;;;;;;10.42;100.00;91744.94;5091289;28;20087;-73
2022/11/21 02:37:26;;;;;;;4.50;1.50;;;;;;;10.19;100.00;91707.56;5091493;28;20052;-73
2022/11/21 02:39:54;;;;;;;4.85;1.60;;;;;;;10.40;100.00;91739.28;5090936;28;20097;-72
2022/11/21 02:42:28;;;;;;;4.95;1.70;;;;;;;10.37;100.00;91732.06;5090947;28;20485;-73
2022/11/21 02:45:02;;;;;;;5.70;1.88;;;;;;;10.28;100.00;91720.72;5091099;28;20044;-72
2022/11/21 02:47:29;;;;;;;6.47;1.73;;;;;;;10.29;100.00;91733.28;5090889;28;20493;-73
2022/11/21 02:50:01;;;;;;;5.88;1.42;;;;;;;10.06;100.00;91693.34;5090628;28;20097;-72
2022/11/21 02:52:28;;;;;;;4.00;1.35;;;;;;;10.29;100.00;91712.00;5090640;28;20101;-72
2022/11/21 02:54:55;;;;;;;4.20;1.55;;;;;;;10.24;100.00;91704.25;5090449;28;20497;-72
2022/11/21 02:57:23;;;;;;;4.55;1.20;;;;;;;10.25;100.00;91704.00;5090623;28;20052;-72
2022/11/21 02:59:49;;;;;;;6.05;1.50;;;;;;;10.28;100.00;91706.06;5090674;28;20059;-72
2022/11/21 03:02:16;;;;;;;6.60;1.80;;;;;;;10.29;100.00;91705.03;5090750;28;20048;-72
2022/11/21 03:04:44;;;;;;;4.72;1.42;;;;;;;10.33;100.00;91712.28;5090482;28;20074;-72
2022/11/21 03:07:10;;;;;;;4.35;1.17;;;;;;;10.26;100.00;91697.84;5089845;28;20074;-72
2022/11/21 03:09:37;;;;;;;3.00;1.00;;;;;;;10.32;100.00;91705.59;5090603;28;20085;-72
2022/11/21 03:12:08;;;;;;;2.78;1.27;;;;;;;10.30;100.00;91708.41;5090475;28;20075;-72
2022/11/21 03:14:36;;;;;;;6.47;1.25;;;;;;;10.29;100.00;91712.00;5090026;28;20052;-72
2022/11/21 03:17:04;;;;;;;9.00;1.35;;;;;;;10.31;100.00;91709.19;5090496;28;20413;-72
2022/11/21 03:19:31;;;;;;;4.10;1.25;;;;;;;10.28;100.00;91711.19;5090280;28;20497;-72
2022/11/21 03:21:57;;;;;;;4.55;1.30;;;;;;;10.31;100.00;91699.69;5090439;28;20040;-72
2022/11/21 03:24:24;;;;;;;4.18;1.33;;;;;;;10.36;100.00;91719.47;5090518;28;20040;-72
2022/11/21 03:26:51;;;;;;;3.38;1.25;;;;;;;10.36;100.00;91719.47;5090171;28;20044;-72
2022/11/21 03:29:17;;;;;;;7.38;1.25;;;;;;;10.42;100.00;91715.94;5090039;28;20572;-72
2022/11/21 03:31:45;;;;;;;6.18;1.40;;;;;;;10.43;100.00;91732.91;5089656;28;20093;-72
2022/11/21 03:34:12;;;;;;;4.22;1.90;;;;;;;10.46;100.00;91731.66;5089817;28;20048;-72
2022/11/21 03:36:39;;;;;;;5.00;1.75;;;;;;;10.46;100.00;91727.28;5090037;28;20044;-73
2022/11/21 03:39:06;;;;;;;4.45;1.65;;;;;;;10.48;100.00;91716.78;5090287;28;20120;-73
2022/11/21 03:41:33;;;;;;;3.75;1.50;;;;;;;10.50;100.00;91723.22;5090129;28;20125;-72
2022/11/21 03:44:01;;;;;;;6.93;2.20;;;;;;;10.44;100.00;91721.63;5090082;28;20145;-72
2022/11/21 03:46:28;;;;;;;7.13;1.92;;;;;;;10.42;100.00;91721.06;5089843;28;20558;-72
2022/11/21 03:48:57;;;;;;;5.03;1.75;;;;;;;10.46;100.00;91723.94;5089823;28;20109;-73
2022/11/21 03:51:24;;;;;;;6.30;1.77;;;;;;;10.45;100.00;91723.16;5089708;28;20117;-72
2022/11/21 03:53:51;;;;;;;7.20;2.15;;;;;;;10.42;100.00;91713.38;5089862;28;20093;-73
2022/11/21 03:56:18;;;;;;;6.65;1.92;;;;;;;10.49;100.00;91720.88;5089608;28;20135;-73
2022/11/21 03:58:45;;;;;;;4.40;1.80;;;;;;;10.47;100.00;91721.16;5089797;28;20470;-73
2022/11/21 04:01:12;;;;;;;7.97;2.25;;;;;;;10.45;100.00;91714.72;5089562;28;20098;-72
2022/11/21 04:03:40;;;;;;;5.07;2.10;;;;;;;10.45;100.00;91707.75;5089909;28;20046;-72
2022/11/21 04:06:08;;;;;;;5.32;1.98;;;;;;;10.42;100.00;91711.56;5089479;28;20098;-72
2022/11/21 04:08:35;;;;;;;7.18;2.47;;;;;;;10.45;100.00;91710.34;5089238;28;20560;-73
2022/11/21 04:11:02;;;;;;;8.45;2.83;;;;;;;10.42;100.00;91703.88;5077998;28;20056;-72
2022/11/21 04:13:29;;;;;;;9.30;2.95;;;;;;;10.47;100.00;91697.25;5069399;28;20036;-73
2022/11/21 04:15:56;;;;;;;11.93;3.17;;;;;;;10.43;100.00;91708.00;5069189;28;20113;-73
2022/11/21 04:18:22;;;;;;;6.95;2.17;;;;;;;10.51;100.00;91709.34;5068870;28;20558;-73
2022/11/21 04:20:49;;;;;;;5.50;2.22;;;;;;;10.51;100.00;91711.16;5069554;28;20052;-73
2022/11/21 04:23:17;;;;;;;10.50;2.90;;;;;;;10.55;100.00;91722.47;5069141;28;20041;-72
2022/11/21 04:25:44;;;;;;;9.70;2.88;;;;;;;10.52;100.00;91710.88;5069208;28;20049;-72
2022/11/21 04:28:12;;;;;;;7.65;2.85;;;;;;;10.49;100.00;91724.22;5068922;28;20514;-72
2022/11/21 04:30:39;;;;;;;6.25;2.50;;;;;;;10.56;100.00;91729.16;5069025;28;20101;-72
2022/11/21 04:33:06;;;;;;;9.30;2.50;;;;;;;10.49;100.00;91715.75;5068866;28;20436;-72
2022/11/21 04:35:33;;;;;;;6.55;1.92;;;;;;;10.52;100.00;91730.66;5069380;28;20133;-72
2022/11/21 04:37:59;;;;;;;7.60;1.85;;;;;;;10.48;100.00;91727.03;5068927;28;20106;-72
2022/11/21 04:40:27;;;;;;;8.68;2.60;;;;;;;10.58;100.00;91739.97;5068903;28;20044;-72
2022/11/21 04:42:54;;;;;;;8.32;2.53;;;;;;;10.58;100.00;91742.53;5068760;28;20097;-72
2022/11/21 04:45:21;;;;;;;7.80;2.40;;;;;;;10.53;100.00;91730.44;5069079;28;20456;-72
2022/11/21 04:47:49;;;;;;;5.78;2.22;;;;;;;10.58;100.00;91744.31;5069035;28;20181;-72
2022/11/21 04:50:17;;;;;;;9.07;2.80;;;;;;;10.57;100.00;91748.69;5068938;28;20078;-72
2022/11/21 04:52:49;;;;;;;9.05;2.70;;;;;;;10.62;100.00;91758.22;5068858;28;20257;-72
2022/11/21 04:55:16;;;;;;;7.63;2.83;;;;;;;10.60;100.00;91750.75;5084939;28;20056;-72
2022/11/21 04:57:45;;;;;;;11.02;2.85;;;;;;;10.41;100.00;91725.44;5088698;28;20402;-72
2022/11/21 05:00:13;;;;;;;9.88;2.97;;;;;;;10.51;100.00;91749.66;5088790;28;20075;-72
2022/11/21 05:02:39;;;;;;;6.40;2.67;;;;;;;10.55;100.00;91743.00;5089122;28;20044;-73
2022/11/21 05:05:07;;;;;;;7.65;3.25;;;;;;;10.51;100.00;91737.59;5088715;28;20048;-72
2022/11/21 05:07:34;;;;;;;8.18;2.65;;;;;;;10.47;100.00;91733.19;5089031;28;20055;-72
2022/11/21 05:10:01;;;;;;;6.18;2.55;;;;;;;10.51;100.00;91750.44;5088956;28;20056;-72
2022/11/21 05:15:13;;;;;;;9.30;2.70;;;;;;;10.40;100.00;91752.13;5088800;28;20075;-72
2022/11/21 05:17:40;;;;;;;6.90;3.03;;;;;;;10.46;100.00;91758.09;5088475;28;20089;-72
2022/11/21 05:20:07;;;;;;;8.52;3.00;;;;;;;10.45;100.00;91748.84;5088634;28;20043;-72
2022/11/21 05:22:34;;;;;;;14.00;3.83;;;;;;;10.48;100.00;91755.28;5088775;28;20481;-72
2022/11/21 05:25:01;;;;;;;7.53;3.53;;;;;;;10.49;100.00;91761.97;5088802;28;20077;-72
2022/11/21 05:27:27;;;;;;;8.10;3.38;;;;;;;10.47;100.00;91761.44;5088386;28;20036;-73
2022/11/21 05:29:54;;;;;;;10.52;3.35;;;;;;;10.46;100.00;91767.59;5090443;28;20488;-72
2022/11/21 05:32:23;;;;;;;12.48;3.28;;;;;;;10.49;100.00;91775.56;5092502;28;20056;-72
2022/11/21 05:34:50;;;;;;;10.43;2.95;;;;;;;10.54;100.00;91774.84;5092582;28;20044;-72
2022/11/21 05:37:17;;;;;;;9.50;3.50;;;;;;;10.51;100.00;91775.34;5092409;28;20048;-72
2022/11/21 05:39:44;;;;;;;9.85;3.40;;;;;;;10.50;100.00;91776.34;5092708;28;20101;-72
2022/11/21 05:42:10;;;;;;;11.27;3.83;;;;;;;10.50;100.00;91782.25;5092221;28;20052;-72
2022/11/21 05:44:36;;;;;;;8.93;3.17;;;;;;;10.49;100.00;91780.72;5092019;28;20048;-72
2022/11/21 05:47:03;;;;;;;14.60;4.90;;;;;;;10.52;100.00;91784.59;5091744;28;20048;-72
2022/11/21 05:49:31;;;;;;;13.65;4.68;;;;;;;10.52;100.00;91782.78;5092052;28;20093;-72
2022/11/21 05:51:58;;;;;;;15.40;3.38;;;;;;;10.52;100.00;91794.84;5091725;28;20097;-72
2022/11/21 05:54:24;;;;;;;12.20;3.88;;;;;;;10.43;100.00;91779.88;5091888;28;20036;-72
2022/11/21 05:56:51;;;;;;;14.43;3.90;;;;;;;10.58;100.00;91796.44;5092069;28;20505;-72
2022/11/21 05:59:18;;;;;;;14.20;3.30;;;;;;;10.59;100.00;91805.69;5108575;28;20051;-72
2022/11/21 06:04:28;;;;;;;11.18;2.33;;;;;;;10.53;100.00;91811.81;5112593;28;20059;-72
2022/11/21 06:06:56;;;;;;;12.73;3.17;;;;;;;10.60;100.00;91819.31;5112466;28;20051;-72
2022/11/21 06:09:23;;;;;;;11.45;3.05;;;;;;;10.60;100.00;91830.34;5112740;28;20108;-72
2022/11/21 06:11:50;;;;;;;11.98;3.38;;;;;;;10.60;100.00;91840.63;5112746;28;20040;-72
2022/11/21 06:14:16;;;;;;;9.85;2.92;;;;;;;10.61;100.00;91833.69;5112205;28;20044;-72
2022/11/21 06:16:43;;;;;;;9.10;2.53;;;;;;;10.43;100.00;91802.97;5112208;28;20485;-72
2022/11/21 06:19:10;;;;;;;12.13;3.53;;;;;;;10.64;100.00;91830.66;5112618;28;20051;-72
2022/11/21 06:21:36;;;;;;;12.05;3.45;;;;;;;10.66;100.00;91839.63;5112226;28;20104;-72
2022/11/21 06:24:06;;;;;;;12.02;2.60;;;;;;;10.64;100.00;91841.69;5112249;28;20509;-72
2022/11/21 06:26:33;;;;;;;12.30;3.38;;;;;;;10.66;100.00;91839.63;5112248;28;20051;-72
2022/11/21 06:29:00;;;;;;;6.30;2.53;;;;;;;10.56;100.00;91837.75;5112402;28;20120;-72
2022/11/21 06:31:27;;;;;;;8.88;2.33;;;;;;;10.55;100.00;91843.13;5112265;28;20055;-72
2022/11/21 06:33:55;;;;;;;9.45;2.60;;;;;;;10.58;100.00;91854.72;5111864;28;20047;-72
2022/11/21 06:36:22;;;;;;;9.40;2.33;;;;;;;10.63;100.00;91847.84;5112236;28;20056;-72
2022/11/21 06:38:49;;;;;;;49.55;29.33;;;;;;;10.60;100.00;91852.69;5112067;28;20390;-72
2022/11/21 06:41:18;;;;;;;24.67;13.85;;;;;;;10.52;100.00;91846.19;5111979;28;20043;-72
2022/11/21 06:43:46;;;;;;;20.20;11.25;;;;;;;10.54;100.00;91857.78;5110584;28;20074;-72
2022/11/21 06:46:13;;;;;;;7.70;3.25;;;;;;;10.53;100.00;91876.78;5093666;28;20084;-73
2022/11/21 06:48:41;;;;;;;12.55;4.13;;;;;;;10.46;100.00;91870.28;5111735;28;20105;-72
2022/11/21 06:51:17;;;;;;;11.10;2.85;;;;;;;10.55;100.00;91909.88;5110203;28;20656;-73
2022/11/21 06:53:44;;;;;;;14.23;5.50;;;;;;;10.58;100.00;91924.81;5104768;28;20569;-72
2022/11/21 06:56:11;;;;;;;5.57;2.25;;;;;;;10.26;100.00;91949.34;5090200;28;20044;-72
2022/11/21 06:58:39;;;;;;;4.25;1.45;;;;;;;9.70;100.00;91921.97;5111915;28;20611;-73
2022/11/21 07:01:07;;;;;;;10.05;1.83;;;;;;;9.68;100.00;91956.56;5111424;28;20637;-72
2022/11/21 07:03:35;;;;;;;7.70;3.05;;;;;;;9.21;100.00;91958.41;5111153;28;20051;-72
2022/11/21 07:06:02;;;;;;;7.78;3.05;;;;;;;8.36;100.00;91967.41;5111694;28;20117;-72
2022/11/21 07:08:30;;;;;;;6.93;2.80;;;;;;;7.81;100.00;91963.47;5088327;28;20045;-72
2022/11/21 07:11:00;;;;;;;7.97;2.85;;;;;;;7.45;100.00;91969.38;5109704;28;20035;-72
2022/11/21 07:13:27;;;;;;;7.40;3.15;;;;;;;7.43;100.00;91973.94;5111510;28;20109;-72
2022/11/21 07:16:02;;;;;;;8.52;2.78;;;;;;;7.33;100.00;91974.44;5110316;28;20047;-72
2022/11/21 07:18:29;;;;;;;6.10;3.00;;;;;;;6.94;100.00;91982.47;5111510;28;20116;-72
2022/11/21 07:20:58;;;;;;;8.43;3.33;;;;;;;6.82;100.00;91992.63;5111096;28;20043;-71
2022/11/21 07:23:24;;;;;;;5.07;2.08;;;;;;;6.79;100.00;91995.63;5111014;28;20077;-71
2022/11/21 07:25:51;;;;;;;6.78;2.10;;;;;;;7.06;100.00;92008.06;5111188;28;20462;-71
2022/11/21 07:28:18;;;;;;;4.88;2.58;;;;;;;7.20;100.00;92013.75;5111426;28;20052;-71
2022/11/21 07:30:44;;;;;;;7.75;3.25;;;;;;;7.13;100.00;92018.16;5110796;28;20059;-72
2022/11/21 07:33:12;;;;;;;7.13;3.15;;;;;;;6.95;100.00;92024.88;5110800;28;20493;-72
2022/11/21 07:35:39;;;;;;;8.15;3.17;;;;;;;6.91;100.00;92030.63;5110822;28;20136;-72
2022/11/21 07:38:06;;;;;;;7.78;2.72;;;;;;;6.75;100.00;92034.59;5109741;28;20497;-71
2022/11/21 07:40:33;;;;;;;9.23;3.75;;;;;;;6.67;100.00;92025.44;5089231;28;20552;-71
2022/11/21 07:43:01;;;;;;;8.18;3.78;;;;;;;6.71;100.00;92036.00;5110663;28;20075;-71
2022/11/21 07:45:28;;;;;;;8.25;3.03;;;;;;;6.50;100.00;92038.78;5110507;28;20083;-71
2022/11/21 07:47:58;;;;;;;4.53;1.48;;;;;;;6.38;100.00;92051.44;5104576;28;20043;-72
2022/11/21 07:50:27;;;;;;;4.47;2.50;;;;;;;6.41;100.00;92043.38;5102906;28;20100;-72
2022/11/21 07:52:57;;;;;;;5.82;2.67;;;;;;;6.47;100.00;92064.69;5109910;28;20445;-72
2022/11/21 07:55:24;;;;;;;7.05;1.88;;;;;;;6.50;100.00;92056.63;5081871;28;20036;-71
2022/11/21 07:57:57;;;;;;;5.32;1.67;;;;;;;6.58;100.00;92070.88;5110345;28;20569;-71
2022/11/21 08:00:24;;;;;;;5.75;1.60;;;;;;;6.59;100.00;92085.19;5110524;28;20104;-71
2022/11/21 08:02:51;;;;;;;7.25;2.00;;;;;;;6.72;100.00;92091.94;5110629;28;20051;-71
2022/11/21 08:05:18;;;;;;;4.50;1.85;;;;;;;6.81;100.00;92098.28;5110445;28;20558;-71
2022/11/21 08:07:46;;;;;;;8.30;2.03;;;;;;;6.89;100.00;92101.56;5110568;28;20390;-71
2022/11/21 08:10:13;;;;;;;4.60;2.08;;;;;;;6.94;100.00;92109.34;5110208;28;20544;-71
2022/11/21 08:12:39;;;;;;;6.35;1.95;;;;;;;6.80;100.00;92108.72;5095784;28;20060;-71
2022/11/21 08:15:07;;;;;;;4.63;1.85;;;;;;;6.66;100.00;92118.28;5110376;28;20462;-71
2022/11/21 08:17:34;;;;;;;5.25;2.00;;;;;;;6.98;100.00;92119.91;5109837;28;20130;-72
2022/11/21 08:20:01;;;;;;;9.30;2.53;;;;;;;6.99;100.00;92124.78;5110389;28;20043;-71
2022/11/21 08:22:28;;;;;;;3.17;1.50;;;;;;;6.74;100.00;92129.97;5109979;28;20056;-71
2022/11/21 08:24:56;;;;;;;4.28;2.15;;;;;;;6.92;100.00;92132.53;5110109;28;20096;-71
2022/11/21 08:27:23;;;;;;;3.33;1.55;;;;;;;6.54;100.00;92141.94;5110178;28;20051;-71
2022/11/21 08:29:50;;;;;;;3.65;1.45;;;;;;;6.21;100.00;92148.13;5109658;28;20118;-71
2022/11/21 08:32:17;;;;;;;2.50;1.42;;;;;;;6.37;100.00;92153.69;5102134;28;20101;-71
2022/11/21 08:34:44;;;;;;;3.78;1.83;;;;;;;6.76;100.00;92150.97;5081065;28;20124;-71
2022/11/21 08:37:10;;;;;;;4.05;2.40;;;;;;;6.72;100.00;92157.50;5108621;28;20082;-71
2022/11/21 08:39:37;;;;;;;2.05;1.17;;;;;;;6.82;100.00;92163.66;5109908;28;20047;-71
2022/11/21 08:42:05;;;;;;;3.83;2.63;;;;;;;6.71;100.00;92153.38;5110009;28;20051;-71
2022/11/21 08:44:33;;;;;;;3.30;1.90;;;;;;;6.64;100.00;92164.44;5109788;28;20100;-71
2022/11/21 08:47:01;;;;;;;3.50;1.20;;;;;;;6.24;100.00;92165.56;5109763;28;20455;-71
2022/11/21 08:49:28;;;;;;;2.60;1.10;;;;;;;6.18;100.00;92163.06;5109800;28;20048;-71
2022/11/21 08:51:55;;;;;;;1.45;0.82;;;;;;;5.99;100.00;92171.41;5109609;28;20088;-71
2022/11/21 08:54:23;;;;;;;2.65;1.20;;;;;;;5.89;100.00;92169.31;5092214;28;20418;-71
2022/11/21 08:56:50;;;;;;;9.27;2.72;;;;;;;6.18;100.00;92168.94;5099278;28;20083;-71
2022/11/21 08:59:18;;;;;;;7.43;1.83;;;;;;;6.10;100.00;92174.28;5109781;28;20048;-71
2022/11/21 09:01:45;;;;;;;6.18;3.00;;;;;;;6.12;100.00;92178.19;5082151;28;20463;-71
2022/11/21 09:04:12;;;;;;;8.40;2.33;;;;;;;6.37;100.00;92174.09;5109233;28;20101;-71
2022/11/21 09:06:39;;;;;;;6.13;2.60;;;;;;;6.41;100.00;92175.25;5088660;28;20052;-71
2022/11/21 09:09:06;;;;;;;5.80;2.15;;;;;;;6.39;100.00;92178.00;5111071;28;20109;-72
2022/11/21 09:11:34;;;;;;;6.32;1.67;;;;;;;6.61;100.00;92167.41;5089020;28;20102;-71
2022/11/21 09:19:30;;;;;;;;;;;;;;;6.61;100.00;92175.06;5078880;28;20063;-72
2022/11/21 09:21:56;;;;;;;4.30;1.55;;;;;;;5.92;100.00;92175.75;5110613;28;19921;-71
2022/11/21 09:24:23;;;;;;;3.53;1.80;;;;;;;6.13;100.00;92173.88;5113304;28;20092;-71
2022/11/21 09:26:50;;;;;;;3.42;1.98;;;;;;;6.10;100.00;92159.78;5113407;28;20112;-71
2022/11/21 09:29:16;;;;;;;5.95;1.63;;;;;;;6.27;100.00;92157.50;5113322;28;20047;-71
2022/11/21 09:31:44;;;;;;;4.75;1.88;;;;;;;6.47;100.00;92163.44;5112886;28;20094;-72
2022/11/21 09:34:12;;;;;;;10.77;2.65;;;;;;;6.76;100.00;92156.09;5112953;28;20047;-71
2022/11/21 09:36:39;;;;;;;8.23;2.10;;;;;;;7.03;100.00;92143.03;5113083;28;20051;-71
2022/11/21 09:39:05;;;;;;;6.03;2.88;;;;;;;6.89;100.00;92155.16;5113037;28;20072;-71
2022/11/21 09:41:51;;;;;;;10.10;2.30;;;;;;;6.95;100.00;92159.44;5085644;28;20509;-71
2022/11/21 09:44:32;;;;;;;14.57;4.97;;;;;;;7.22;100.00;92159.91;5097912;28;20056;-72
2022/11/21 09:47:11;;;;;;;8.40;3.55;;;;;;;7.24;100.00;92169.91;5083041;28;20134;-71
2022/11/21 09:49:47;;;;;;;12.32;3.75;;;;;;;7.37;100.00;92171.53;5111675;28;20151;-71
2022/11/21 09:52:17;;;;;;;3.90;1.58;;;;;;;7.39;100.00;92178.94;5112908;28;20824;-71
2022/11/21 09:54:49;;;;;;;5.43;1.85;;;;;;;7.18;100.00;92163.09;5089189;28;20044;-71
2022/11/21 09:57:21;;;;;;;3.92;2.50;;;;;;;6.67;100.00;92168.34;5109709;28;20060;-71
2022/11/21 09:59:48;;;;;;;2.10;1.40;;;;;;;6.15;100.00;92166.81;5112511;28;20093;-71
2022/11/21 10:02:17;;;;;;;1.80;1.10;;;;;;;5.97;100.00;92149.66;5112617;28;20112;-71
2022/11/21 10:04:48;;;;;;;2.63;1.83;;;;;;;6.05;100.00;92157.06;5112839;28;20458;-71
2022/11/21 10:07:20;;;;;;;3.33;2.42;;;;;;;6.08;100.00;92160.97;5112355;28;20144;-71
2022/11/21 10:10:04;;;;;;;3.30;1.65;;;;;;;6.35;100.00;92160.78;5112384;28;20052;-71
2022/11/21 10:12:40;;;;;;;3.60;1.90;;;;;;;6.63;100.00;92165.41;5112509;28;20122;-71
2022/11/21 10:15:27;;;;;;;3.92;2.70;;;;;;;6.88;100.00;92168.91;5112156;28;20047;-71
2022/11/21 10:18:13;;;;;;;8.50;2.40;;;;;;;6.44;100.00;92177.38;5112186;28;20044;-71
2022/11/21 10:20:54;;;;;;;8.13;3.40;;;;;;;6.75;100.00;92180.06;5112556;28;20079;-71
2022/11/21 10:23:39;;;;;;;12.43;3.78;;;;;;;7.00;100.00;92163.88;5112536;28;20043;-71
2022/11/21 10:26:16;;;;;;;25.77;13.05;;;;;;;7.20;100.00;92166.22;5112154;28;20083;-71
2022/11/21 10:28:51;;;;;;;19.08;9.50;;;;;;;7.37;100.00;92178.41;5112192;28;20135;-71
2022/11/21 10:31:19;;;;;;;16.85;8.82;;;;;;;7.44;100.00;92179.09;5112398;28;20069;-71
2022/11/21 10:33:46;;;;;;;28.48;16.10;;;;;;;7.48;100.00;92173.34;5077687;28;20039;-71
2022/11/21 10:36:24;;;;;;;23.73;14.73;;;;;;;7.59;100.00;92178.72;5110879;28;20047;-71
2022/11/21 10:38:55;;;;;;;32.03;16.98;;;;;;;7.53;100.00;92170.13;5112094;28;20044;-71
2022/11/21 10:41:37;;;;;;;92.32;42.47;;;;;;;7.65;100.00;92169.41;5112009;28;20152;-71
2022/11/21 10:46:57;;;;;;;19.15;10.90;;;;;;;7.54;100.00;92174.25;5111639;28;20067;-71
2022/11/21 10:49:26;;;;;;;8.43;4.40;;;;;;;7.24;100.00;92181.88;5111130;28;20044;-71
2022/11/21 10:52:01;;;;;;;10.00;6.47;;;;;;;7.01;100.00;92175.66;5111464;28;20576;-71
2022/11/21 10:54:35;;;;;;;4.88;3.38;;;;;;;6.61;100.00;92180.16;5092476;28;20045;-71
2022/11/21 10:57:07;;;;;;;2.90;2.25;;;;;;;6.64;100.00;92186.63;5104702;28;20055;-71
2022/11/21 10:59:34;;;;;;;3.97;2.90;;;;;;;6.43;100.00;92187.78;5111291;28;20055;-71
2022/11/21 11:02:03;;;;;;;4.22;2.30;;;;;;;6.65;100.00;92186.41;5111615;28;20413;-71
2022/11/21 11:04:32;;;;;;;1.88;1.30;;;;;;;6.51;100.00;92190.06;5111661;28;20051;-70
2022/11/21 11:07:20;;;;;;;1.77;1.02;;;;;;;6.34;100.00;92182.16;5111703;28;20048;-71
2022/11/21 11:09:47;;;;;;;3.03;1.33;;;;;;;6.38;100.00;92189.19;5111699;28;20096;-71
2022/11/21 11:13:32;;;;;;;3.95;2.25;;;;;;;6.46;100.00;92187.34;5111557;28;20051;-71
2022/11/21 11:15:18;;;;;;;2.17;1.20;;;;;;;6.07;100.00;92195.13;5111127;28;20126;-71
2022/11/21 11:17:51;;;;;;;2.75;1.80;;;;;;;6.08;100.00;92182.16;5111506;28;20467;-70
2022/11/21 11:20:32;;;;;;;3.20;2.35;;;;;;;6.20;100.00;92179.72;5111000;28;20075;-71
2022/11/21 11:23:00;;;;;;;2.15;1.58;;;;;;;5.95;100.00;92187.31;5110955;28;20592;-70
2022/11/21 11:25:27;;;;;;;2.55;1.40;;;;;;;6.09;100.00;92183.72;5111427;28;20096;-71
2022/11/21 11:27:55;;;;;;;4.10;2.65;;;;;;;5.91;100.00;92178.50;5110744;28;20105;-70
2022/11/21 11:30:21;;;;;;;3.35;2.70;;;;;;;5.80;100.00;92185.84;5111241;28;20077;-71
2022/11/21 11:32:48;;;;;;;2.28;1.70;;;;;;;5.84;100.00;92184.44;5080969;28;20188;-70
2022/11/21 11:35:22;;;;;;;2.22;1.52;;;;;;;5.89;100.00;92199.88;5106016;28;20428;-71
2022/11/21 11:37:59;;;;;;;2.25;1.67;;;;;;;6.03;100.00;92192.19;5111030;28;20061;-71
2022/11/21 11:40:31;;;;;;;4.85;3.33;;;;;;;6.09;100.00;92198.22;5110878;28;20237;-71
2022/11/21 11:49:15;;;;;;;9.48;5.88;;;;;;;6.18;100.00;92186.78;5110632;28;20058;-71
2022/11/21 11:51:47;;;;;;;19.40;10.88;;;;;;;6.44;100.00;92194.44;5110410;28;20096;-70
2022/11/21 11:54:20;;;;;;;5.57;2.95;;;;;;;6.39;100.00;92200.19;5095150;28;20044;-70
2022/11/21 11:56:49;;;;;;;5.45;4.15;;;;;;;6.53;100.00;92198.31;5099524;28;20047;-70